createdAt,value
2019-01-13T00:00:11.767Z,101389.45
2019-01-13T00:01:08.431Z,101388.11
2019-01-13T00:02:09.875Z,101387.25
2019-01-13T00:03:10.245Z,101386.51
2019-01-13T00:04:10.874Z,101385.99
2019-01-13T00:05:11.945Z,101384.94
2019-01-13T00:06:11.375Z,101383.67
2019-01-13T00:07:11.756Z,101382.74
2019-01-13T00:08:12.091Z,101381.70
2019-01-13T00:09:12.388Z,101379.85
2019-01-13T00:10:12.800Z,101378.89
2019-01-13T00:11:13.443Z,101378.11
2019-01-13T00:12:13.893Z,101377.64
2019-01-13T00:13:14.151Z,101377.38
2019-01-13T00:14:14.441Z,101377.20
2019-01-13T00:15:14.745Z,101376.66
2019-01-13T00:16:15.051Z,101375.56
2019-01-13T00:17:15.466Z,101375.19
2019-01-13T00:18:15.962Z,101375.09
2019-01-13T00:19:16.265Z,101374.91
2019-01-13T00:20:48.783Z,101380.27
2019-01-13T00:21:50.061Z,101379.20
2019-01-13T00:22:50.333Z,101378.70
2019-01-13T00:23:50.699Z,101378.53
2019-01-13T00:24:50.993Z,101378.11
2019-01-13T00:25:51.339Z,101377.94
2019-01-13T00:26:51.786Z,101378.28
2019-01-13T00:27:52.175Z,101378.78
2019-01-13T00:28:52.558Z,101379.37
2019-01-13T00:29:53.028Z,101380.20
2019-01-13T00:30:53.128Z,101380.78
2019-01-13T00:31:53.440Z,101381.56
2019-01-13T00:32:53.871Z,101382.16
2019-01-13T00:33:54.197Z,101382.48
2019-01-13T00:34:55.029Z,101382.40
2019-01-13T00:35:55.211Z,101382.26
2019-01-13T00:36:55.561Z,101382.00
2019-01-13T00:37:55.808Z,101381.35
2019-01-13T00:38:56.246Z,101382.02
2019-01-13T00:39:56.651Z,101382.70
2019-01-13T00:40:56.943Z,101382.02
2019-01-13T00:41:57.303Z,101382.00
2019-01-13T00:42:57.654Z,101381.92
2019-01-13T00:43:58.900Z,101381.56
2019-01-13T00:44:58.374Z,101381.39
2019-01-13T00:45:58.684Z,101380.64
2019-01-13T00:46:58.130Z,101380.64
2019-01-13T00:47:59.519Z,101380.13
2019-01-13T00:48:59.880Z,101380.05
2019-01-13T00:49:59.072Z,101380.47
2019-01-13T00:51:00.712Z,101380.81
2019-01-13T00:51:59.923Z,101380.64
2019-01-13T00:53:01.251Z,101380.81
2019-01-13T00:54:01.624Z,101381.14
2019-01-13T00:55:01.993Z,101380.72
2019-01-13T00:56:02.377Z,101380.89
2019-01-13T00:57:02.826Z,101381.22
2019-01-13T00:58:03.163Z,101380.80
2019-01-13T00:59:03.480Z,101380.64
2019-01-13T01:00:03.722Z,101380.64
2019-01-13T01:01:04.188Z,101380.80
2019-01-13T01:02:04.828Z,101380.58
2019-01-13T01:03:05.166Z,101380.66
2019-01-13T01:04:05.387Z,101380.91
2019-01-13T01:05:05.756Z,101381.09
2019-01-13T01:06:06.091Z,101381.09
2019-01-13T01:06:14.138Z,101383.52
2019-01-13T01:07:15.376Z,101383.59
2019-01-13T01:08:15.744Z,101384.05
2019-01-13T01:09:15.976Z,101383.80
2019-01-13T01:10:16.438Z,101384.48
2019-01-13T01:11:16.811Z,101384.22
2019-01-13T01:12:17.442Z,101384.58
2019-01-13T01:13:17.810Z,101385.24
2019-01-13T01:14:18.314Z,101385.02
2019-01-13T01:15:18.673Z,101385.45
2019-01-13T01:16:19.219Z,101385.81
2019-01-13T01:17:19.632Z,101385.80
2019-01-13T01:18:20.162Z,101385.99
2019-01-13T01:19:20.599Z,101386.06
2019-01-13T01:20:21.158Z,101386.40
2019-01-13T01:21:21.650Z,101385.90
2019-01-13T01:22:22.263Z,101385.56
2019-01-13T01:23:22.931Z,101385.84
2019-01-13T01:24:23.359Z,101385.66
2019-01-13T01:25:23.976Z,101386.11
2019-01-13T01:26:24.340Z,101386.95
2019-01-13T01:27:24.813Z,101387.20
2019-01-13T01:28:25.337Z,101387.95
2019-01-13T01:29:25.862Z,101387.63
2019-01-13T01:30:33.273Z,101387.72
2019-01-13T01:31:25.890Z,101387.03
2019-01-13T01:32:27.308Z,101387.37
2019-01-13T01:33:27.757Z,101387.37
2019-01-13T01:34:28.249Z,101387.80
2019-01-13T01:35:28.695Z,101387.30
2019-01-13T01:36:29.159Z,101386.87
2019-01-13T01:37:30.805Z,101386.79
2019-01-13T01:38:30.287Z,101386.45
2019-01-13T01:39:30.690Z,101386.04
2019-01-13T01:40:31.117Z,101385.03
2019-01-13T01:41:31.474Z,101384.27
2019-01-13T01:42:31.745Z,101383.34
2019-01-13T01:43:32.166Z,101383.18
2019-01-13T01:44:32.432Z,101381.67
2019-01-13T01:45:32.774Z,101380.58
2019-01-13T01:46:33.045Z,101379.33
2019-01-13T01:47:33.376Z,101378.97
2019-01-13T01:48:33.770Z,101378.39
2019-01-13T01:48:42.312Z,101374.06
2019-01-13T01:49:42.882Z,101373.47
2019-01-13T01:50:43.312Z,101373.80
2019-01-13T01:51:43.678Z,101373.88
2019-01-13T01:52:43.999Z,101373.97
2019-01-13T01:53:44.266Z,101373.58
2019-01-13T01:54:44.534Z,101374.08
2019-01-13T01:55:44.782Z,101374.24
2019-01-13T01:56:45.045Z,101373.98
2019-01-13T01:57:45.368Z,101373.98
2019-01-13T01:58:46.620Z,101373.39
2019-01-13T01:59:45.927Z,101372.47
2019-01-13T02:00:46.393Z,101370.81
2019-01-13T02:01:46.741Z,101369.39
2019-01-13T02:02:47.086Z,101368.07
2019-01-13T02:03:47.390Z,101367.05
2019-01-13T02:04:47.667Z,101366.33
2019-01-13T02:05:48.020Z,101365.91
2019-01-13T02:06:48.340Z,101365.66
2019-01-13T02:07:48.596Z,101365.33
2019-01-13T02:08:48.971Z,101364.88
2019-01-13T02:09:49.942Z,101364.12
2019-01-13T02:10:50.207Z,101363.38
2019-01-13T02:11:50.521Z,101363.43
2019-01-13T02:12:50.842Z,101362.77
2019-01-13T02:13:51.128Z,101362.18
2019-01-13T02:14:51.363Z,101361.77
2019-01-13T02:15:51.628Z,101361.27
2019-01-13T02:16:51.682Z,101361.02
2019-01-13T02:17:52.104Z,101361.06
2019-01-13T02:18:52.434Z,101360.16
2019-01-13T02:19:52.772Z,101359.73
2019-01-13T02:20:53.090Z,101359.49
2019-01-13T02:21:53.516Z,101358.96
2019-01-13T02:22:53.825Z,101358.97
2019-01-13T02:23:54.121Z,101358.28
2019-01-13T02:24:54.403Z,101358.17
2019-01-13T02:25:54.647Z,101357.52
2019-01-13T02:26:54.888Z,101356.89
2019-01-13T02:27:55.247Z,101356.23
2019-01-13T02:28:55.807Z,101355.53
2019-01-13T02:29:56.025Z,101355.09
2019-01-13T02:30:56.353Z,101354.27
2019-01-13T02:31:57.262Z,101353.23
2019-01-13T02:32:57.690Z,101352.48
2019-01-13T02:33:05.980Z,101333.97
2019-01-13T02:34:07.305Z,101333.71
2019-01-13T02:35:07.596Z,101333.62
2019-01-13T02:36:08.021Z,101333.39
2019-01-13T02:37:08.315Z,101333.73
2019-01-13T02:38:09.076Z,101333.81
2019-01-13T02:39:09.698Z,101333.89
2019-01-13T02:40:10.002Z,101334.23
2019-01-13T02:41:10.282Z,101333.98
2019-01-13T02:42:10.551Z,101334.63
2019-01-13T02:43:11.144Z,101334.29
2019-01-13T02:44:11.657Z,101334.29
2019-01-13T02:45:12.216Z,101334.38
2019-01-13T02:46:12.883Z,101334.29
2019-01-13T02:47:13.245Z,101334.23
2019-01-13T02:48:13.534Z,101334.23
2019-01-13T02:49:13.786Z,101334.65
2019-01-13T02:50:14.039Z,101333.56
2019-01-13T02:51:14.475Z,101333.39
2019-01-13T02:52:14.943Z,101333.23
2019-01-13T02:53:15.329Z,101332.45
2019-01-13T02:54:15.817Z,101331.53
2019-01-13T02:55:16.416Z,101330.78
2019-01-13T02:56:16.693Z,101329.61
2019-01-13T02:57:17.005Z,101327.76
2019-01-13T02:58:17.441Z,101326.92
2019-01-13T02:59:17.741Z,101325.41
2019-01-13T03:00:18.099Z,101323.56
2019-01-13T03:01:18.847Z,101322.15
2019-01-13T03:02:18.390Z,101320.52
2019-01-13T03:03:19.811Z,101319.52
2019-01-13T03:04:20.342Z,101318.68
2019-01-13T03:05:20.833Z,101318.17
2019-01-13T03:06:21.268Z,101317.63
2019-01-13T03:07:21.752Z,101316.86
2019-01-13T03:08:21.840Z,101316.02
2019-01-13T03:09:22.575Z,101314.87
2019-01-13T03:10:23.183Z,101313.85
2019-01-13T03:11:23.757Z,101312.53
2019-01-13T03:12:24.224Z,101312.19
2019-01-13T03:13:24.736Z,101311.13
2019-01-13T03:14:25.161Z,101310.22
2019-01-13T03:15:25.818Z,101308.48
2019-01-13T03:15:34.242Z,101285.38
2019-01-13T03:16:35.687Z,101285.12
2019-01-13T03:17:36.117Z,101284.45
2019-01-13T03:18:36.571Z,101284.28
2019-01-13T03:19:37.029Z,101284.20
2019-01-13T03:20:37.550Z,101283.87
2019-01-13T03:21:38.113Z,101283.08
2019-01-13T03:22:38.707Z,101282.75
2019-01-13T03:23:39.254Z,101282.83
2019-01-13T03:24:39.671Z,101282.64
2019-01-13T03:25:40.104Z,101282.15
2019-01-13T03:26:40.596Z,101282.29
2019-01-13T03:27:41.134Z,101282.89
2019-01-13T03:28:41.596Z,101282.70
2019-01-13T03:29:41.998Z,101282.62
2019-01-13T03:30:42.433Z,101282.76
2019-01-13T03:31:42.928Z,101281.92
2019-01-13T03:32:42.391Z,101282.52
2019-01-13T03:33:45.137Z,101282.09
2019-01-13T03:34:44.778Z,101282.26
2019-01-13T03:35:45.128Z,101282.17
2019-01-13T03:36:45.591Z,101282.45
2019-01-13T03:37:46.187Z,101282.86
2019-01-13T03:38:46.533Z,101283.11
2019-01-13T03:39:45.945Z,101283.39
2019-01-13T03:40:47.379Z,101283.89
2019-01-13T03:41:47.746Z,101284.14
2019-01-13T03:42:48.347Z,101284.73
2019-01-13T03:43:49.319Z,101285.06
2019-01-13T03:44:48.461Z,101285.13
2019-01-13T03:45:49.563Z,101284.69
2019-01-13T03:46:49.984Z,101284.60
2019-01-13T03:47:50.751Z,101284.52
2019-01-13T03:48:51.477Z,101284.28
2019-01-13T03:49:51.863Z,101284.00
2019-01-13T03:50:52.247Z,101284.00
2019-01-13T03:51:52.350Z,101283.59
2019-01-13T03:52:53.764Z,101283.31
2019-01-13T03:53:54.478Z,101283.06
2019-01-13T03:54:55.107Z,101282.79
2019-01-13T03:55:55.783Z,101283.02
2019-01-13T03:56:56.223Z,101283.34
2019-01-13T03:57:56.566Z,101282.81
2019-01-13T03:58:57.254Z,101282.80
2019-01-13T03:59:58.182Z,101282.36
2019-01-13T04:00:58.684Z,101282.03
2019-01-13T04:01:59.222Z,101281.67
2019-01-13T04:02:59.810Z,101281.09
2019-01-13T04:03:59.047Z,101280.42
2019-01-13T04:05:00.186Z,101279.73
2019-01-13T04:05:59.650Z,101279.06
2019-01-13T04:07:00.605Z,101278.53
2019-01-13T04:08:01.165Z,101278.01
2019-01-13T04:09:01.112Z,101277.26
2019-01-13T04:09:10.659Z,101260.23
2019-01-13T04:10:09.967Z,101260.17
2019-01-13T04:11:11.414Z,101260.34
2019-01-13T04:12:11.884Z,101259.73
2019-01-13T04:13:12.152Z,101259.65
2019-01-13T04:14:12.655Z,101259.65
2019-01-13T04:15:13.412Z,101258.98
2019-01-13T04:16:12.579Z,101258.22
2019-01-13T04:17:13.032Z,101257.89
2019-01-13T04:18:14.168Z,101257.22
2019-01-13T04:19:13.719Z,101257.22
2019-01-13T04:20:14.172Z,101256.97
2019-01-13T04:21:14.161Z,101255.97
2019-01-13T04:22:14.536Z,101255.13
2019-01-13T04:23:14.637Z,101254.44
2019-01-13T04:24:16.753Z,101253.06
2019-01-13T04:25:16.282Z,101252.48
2019-01-13T04:26:16.625Z,101250.81
2019-01-13T04:27:18.442Z,101249.95
2019-01-13T04:28:18.032Z,101248.33
2019-01-13T04:29:18.422Z,101246.75
2019-01-13T04:30:18.506Z,101244.88
2019-01-13T04:31:26.589Z,101243.17
2019-01-13T04:32:19.282Z,101241.17
2019-01-13T04:33:20.886Z,101238.91
2019-01-13T04:34:21.357Z,101236.95
2019-01-13T04:35:21.785Z,101234.36
2019-01-13T04:36:22.259Z,101231.67
2019-01-13T04:37:22.679Z,101229.24
2019-01-13T04:38:23.067Z,101227.70
2019-01-13T04:39:23.515Z,101225.53
2019-01-13T04:40:23.929Z,101223.10
2019-01-13T04:41:24.355Z,101220.65
2019-01-13T04:42:24.976Z,101218.28
2019-01-13T04:43:25.578Z,101216.52
2019-01-13T04:44:25.988Z,101215.41
2019-01-13T04:45:26.575Z,101214.23
2019-01-13T04:46:27.139Z,101212.03
2019-01-13T04:47:27.608Z,101210.42
2019-01-13T04:48:28.342Z,101208.88
2019-01-13T04:49:29.106Z,101207.52
2019-01-13T04:50:30.323Z,101206.58
2019-01-13T04:51:29.835Z,101205.08
2019-01-13T04:52:30.231Z,101204.13
2019-01-13T04:53:30.632Z,101203.35
2019-01-13T04:54:31.197Z,101201.91
2019-01-13T04:55:31.661Z,101199.89
2019-01-13T04:56:32.559Z,101197.80
2019-01-13T04:57:32.995Z,101195.17
2019-01-13T04:58:33.522Z,101193.22
2019-01-13T04:59:33.956Z,101190.80
2019-01-13T05:00:34.305Z,101188.42
2019-01-13T05:01:36.897Z,101185.83
2019-01-13T05:02:34.322Z,101183.63
2019-01-13T05:02:42.706Z,101150.33
2019-01-13T05:03:44.078Z,101149.91
2019-01-13T05:04:44.495Z,101149.91
2019-01-13T05:05:44.828Z,101149.82
2019-01-13T05:06:44.232Z,101149.88
2019-01-13T05:07:45.946Z,101149.37
2019-01-13T05:08:46.438Z,101149.09
2019-01-13T05:09:46.859Z,101149.34
2019-01-13T05:10:47.253Z,101148.84
2019-01-13T05:11:47.630Z,101148.94
2019-01-13T05:12:48.119Z,101148.59
2019-01-13T05:13:47.541Z,101147.84
2019-01-13T05:14:48.995Z,101147.84
2019-01-13T05:15:49.548Z,101147.17
2019-01-13T05:16:50.152Z,101146.22
2019-01-13T05:17:50.546Z,101145.30
2019-01-13T05:18:51.086Z,101144.64
2019-01-13T05:19:51.667Z,101143.62
2019-01-13T05:20:52.098Z,101142.79
2019-01-13T05:21:52.587Z,101141.78
2019-01-13T05:22:53.096Z,101141.11
2019-01-13T05:23:53.670Z,101139.77
2019-01-13T05:24:54.148Z,101138.51
2019-01-13T05:25:54.600Z,101137.09
2019-01-13T05:26:55.134Z,101135.80
2019-01-13T05:27:55.673Z,101134.57
2019-01-13T05:28:56.282Z,101133.56
2019-01-13T05:29:56.770Z,101133.28
2019-01-13T05:30:57.255Z,101132.61
2019-01-13T05:31:57.794Z,101132.44
2019-01-13T05:32:58.325Z,101131.55
2019-01-13T05:33:59.034Z,101130.71
2019-01-13T05:34:59.482Z,101129.25
2019-01-13T05:35:59.900Z,101128.25
2019-01-13T05:37:00.855Z,101127.39
2019-01-13T05:38:01.358Z,101127.11
2019-01-13T05:39:01.831Z,101125.69
2019-01-13T05:40:01.304Z,101125.41
2019-01-13T05:41:03.238Z,101124.41
2019-01-13T05:42:03.894Z,101123.55
2019-01-13T05:43:04.353Z,101122.20
2019-01-13T05:44:04.759Z,101120.84
2019-01-13T05:45:05.235Z,101118.91
2019-01-13T05:46:05.757Z,101115.64
2019-01-13T05:47:06.235Z,101113.01
2019-01-13T05:47:15.576Z,101066.39
2019-01-13T05:48:15.946Z,101065.64
2019-01-13T05:49:16.383Z,101066.73
2019-01-13T05:50:16.911Z,101066.73
2019-01-13T05:51:17.669Z,101066.39
2019-01-13T05:52:18.360Z,101065.39
2019-01-13T05:53:18.783Z,101064.47
2019-01-13T05:54:19.188Z,101063.13
2019-01-13T05:55:19.671Z,101061.53
2019-01-13T05:56:20.169Z,101059.85
2019-01-13T05:57:20.742Z,101058.34
2019-01-13T05:58:21.194Z,101056.91
2019-01-13T05:59:21.623Z,101056.47
2019-01-13T06:00:22.276Z,101054.88
2019-01-13T06:01:22.793Z,101053.78
2019-01-13T06:02:23.237Z,101053.00
2019-01-13T06:03:23.701Z,101052.64
2019-01-13T06:04:24.136Z,101051.95
2019-01-13T06:05:24.626Z,101051.25
2019-01-13T06:06:26.362Z,101049.80
2019-01-13T06:07:25.730Z,101048.52
2019-01-13T06:08:26.150Z,101047.85
2019-01-13T06:09:26.661Z,101047.32
2019-01-13T06:10:27.249Z,101045.65
2019-01-13T06:11:27.740Z,101044.45
2019-01-13T06:12:28.458Z,101044.17
2019-01-13T06:13:29.010Z,101043.08
2019-01-13T06:14:29.509Z,101041.04
2019-01-13T06:15:30.000Z,101039.20
2019-01-13T06:16:30.516Z,101037.24
2019-01-13T06:17:31.007Z,101035.37
2019-01-13T06:18:31.581Z,101033.70
2019-01-13T06:19:31.969Z,101030.98
2019-01-13T06:20:32.423Z,101028.64
2019-01-13T06:21:32.958Z,101027.34
2019-01-13T06:22:33.428Z,101025.39
2019-01-13T06:23:33.948Z,101023.69
2019-01-13T06:24:34.494Z,101023.08
2019-01-13T06:25:34.921Z,101021.70
2019-01-13T06:26:35.469Z,101020.59
2019-01-13T06:27:36.106Z,101018.89
2019-01-13T06:28:36.595Z,101018.02
2019-01-13T06:29:37.100Z,101016.07
2019-01-13T06:30:37.700Z,101014.11
2019-01-13T06:31:38.184Z,101013.08
2019-01-13T06:31:46.232Z,100989.38
2019-01-13T06:32:47.371Z,100989.47
2019-01-13T06:33:47.882Z,100989.47
2019-01-13T06:34:47.376Z,100987.95
2019-01-13T06:35:47.823Z,100986.45
2019-01-13T06:36:49.374Z,100986.11
2019-01-13T06:37:50.146Z,100985.66
2019-01-13T06:38:50.569Z,100985.25
2019-01-13T06:39:51.006Z,100984.41
2019-01-13T06:40:51.367Z,100984.07
2019-01-13T06:41:51.811Z,100983.45
2019-01-13T06:42:52.250Z,100983.59
2019-01-13T06:43:52.701Z,100982.42
2019-01-13T06:44:53.514Z,100981.64
2019-01-13T06:45:53.852Z,100981.98
2019-01-13T06:46:54.358Z,100981.73
2019-01-13T06:47:54.767Z,100981.53
2019-01-13T06:48:55.153Z,100981.11
2019-01-13T06:49:55.553Z,100980.58
2019-01-13T06:50:55.979Z,100980.83
2019-01-13T06:51:56.402Z,100981.42
2019-01-13T06:52:57.289Z,100981.76
2019-01-13T06:53:57.291Z,100982.68
2019-01-13T06:54:57.764Z,100983.36
2019-01-13T06:55:58.247Z,100983.94
2019-01-13T06:56:58.637Z,100984.61
2019-01-13T06:57:59.353Z,100984.97
2019-01-13T06:58:59.383Z,100986.23
2019-01-13T06:59:59.765Z,100987.16
2019-01-13T07:01:00.212Z,100988.16
2019-01-13T07:02:03.521Z,100988.83
2019-01-13T07:03:00.205Z,100989.62
2019-01-13T07:04:01.758Z,100991.47
2019-01-13T07:05:02.240Z,100992.38
2019-01-13T07:06:02.903Z,100993.50
2019-01-13T07:07:03.346Z,100995.29
2019-01-13T07:08:03.788Z,100997.42
2019-01-13T07:09:04.432Z,100999.63
2019-01-13T07:10:04.926Z,101001.08
2019-01-13T07:11:05.363Z,101003.20
2019-01-13T07:12:05.820Z,101004.41
2019-01-13T07:13:06.348Z,101006.20
2019-01-13T07:14:06.857Z,101007.70
2019-01-13T07:15:07.209Z,101009.75
2019-01-13T07:16:07.741Z,101010.53
2019-01-13T07:17:08.114Z,101011.31
2019-01-13T07:18:08.531Z,101012.82
2019-01-13T07:18:22.580Z,101024.69
2019-01-13T07:19:23.996Z,101024.47
2019-01-13T07:20:24.755Z,101023.87
2019-01-13T07:21:25.402Z,101023.37
2019-01-13T07:22:25.801Z,101022.78
2019-01-13T07:23:26.729Z,101022.90
2019-01-13T07:24:27.260Z,101021.72
2019-01-13T07:25:27.717Z,101021.58
2019-01-13T07:26:28.217Z,101021.49
2019-01-13T07:27:27.931Z,101021.16
2019-01-13T07:28:29.450Z,101020.56
2019-01-13T07:29:30.085Z,101020.27
2019-01-13T07:30:30.635Z,101020.27
2019-01-13T07:31:30.054Z,101019.41
2019-01-13T07:32:31.564Z,101018.66
2019-01-13T07:33:32.021Z,101019.11
2019-01-13T07:34:32.473Z,101019.69
2019-01-13T07:35:32.959Z,101019.78
2019-01-13T07:36:33.529Z,101019.61
2019-01-13T07:37:34.019Z,101019.30
2019-01-13T07:38:34.457Z,101019.63
2019-01-13T07:39:34.876Z,101019.25
2019-01-13T07:40:35.341Z,101019.07
2019-01-13T07:41:35.942Z,101019.66
2019-01-13T07:42:36.391Z,101019.77
2019-01-13T07:43:37.003Z,101019.35
2019-01-13T07:44:37.575Z,101019.02
2019-01-13T07:45:38.091Z,101018.88
2019-01-13T07:46:38.500Z,101018.06
2019-01-13T07:47:38.878Z,101017.80
2019-01-13T07:48:39.016Z,101017.63
2019-01-13T07:49:39.517Z,101017.25
2019-01-13T07:50:40.038Z,101017.50
2019-01-13T07:51:40.467Z,101016.41
2019-01-13T07:52:40.884Z,101015.64
2019-01-13T07:53:41.449Z,101014.47
2019-01-13T07:54:41.868Z,101013.80
2019-01-13T07:55:42.285Z,101013.97
2019-01-13T07:56:42.852Z,101012.73
2019-01-13T07:57:43.481Z,101012.12
2019-01-13T07:58:43.965Z,101010.28
2019-01-13T07:59:44.625Z,101010.11
2019-01-13T08:00:45.028Z,101009.21
2019-01-13T08:01:45.507Z,101008.43
2019-01-13T08:01:53.829Z,101001.64
2019-01-13T08:02:55.247Z,101001.05
2019-01-13T08:03:55.675Z,101000.21
2019-01-13T08:04:56.244Z,100999.79
2019-01-13T08:05:56.634Z,100998.78
2019-01-13T08:06:57.138Z,100998.50
2019-01-13T08:07:57.609Z,100997.61
2019-01-13T08:08:58.047Z,100996.48
2019-01-13T08:09:58.464Z,100995.82
2019-01-13T08:10:59.051Z,100995.06
2019-01-13T08:11:59.459Z,100994.03
2019-01-13T08:12:59.909Z,100993.33
2019-01-13T08:14:00.373Z,100992.74
2019-01-13T08:15:00.426Z,100991.73
2019-01-13T08:16:00.845Z,100991.23
2019-01-13T08:17:01.322Z,100990.64
2019-01-13T08:18:01.932Z,100989.75
2019-01-13T08:19:02.457Z,100989.05
2019-01-13T08:20:02.977Z,100987.30
2019-01-13T08:21:03.423Z,100986.59
2019-01-13T08:22:03.984Z,100985.64
2019-01-13T08:23:04.345Z,100984.39
2019-01-13T08:24:04.904Z,100982.43
2019-01-13T08:25:05.318Z,100981.39
2019-01-13T08:26:05.669Z,100980.39
2019-01-13T08:27:06.496Z,100979.86
2019-01-13T08:28:06.991Z,100979.28
2019-01-13T08:29:07.486Z,100978.08
2019-01-13T08:30:07.896Z,100977.23
2019-01-13T08:31:08.467Z,100976.20
2019-01-13T08:32:08.955Z,100975.67
2019-01-13T08:33:09.406Z,100974.66
2019-01-13T08:34:09.768Z,100974.30
2019-01-13T08:35:10.236Z,100973.19
2019-01-13T08:36:10.643Z,100972.06
2019-01-13T08:37:11.144Z,100971.20
2019-01-13T08:38:11.742Z,100970.34
2019-01-13T08:39:12.167Z,100968.55
2019-01-13T08:40:12.783Z,100967.80
2019-01-13T08:41:13.193Z,100966.17
2019-01-13T08:42:13.706Z,100964.47
2019-01-13T08:43:14.084Z,100963.52
2019-01-13T08:44:14.833Z,100962.17
2019-01-13T08:45:15.266Z,100960.41
2019-01-13T08:45:23.656Z,100933.08
2019-01-13T08:46:25.272Z,100932.48
2019-01-13T08:47:25.743Z,100931.91
2019-01-13T08:48:26.594Z,100930.89
2019-01-13T08:49:26.994Z,100931.06
2019-01-13T08:50:27.663Z,100930.61
2019-01-13T08:51:28.116Z,100930.11
2019-01-13T08:52:28.894Z,100929.61
2019-01-13T08:53:29.450Z,100929.27
2019-01-13T08:54:30.402Z,100928.52
2019-01-13T08:55:30.819Z,100927.67
2019-01-13T08:56:31.321Z,100926.42
2019-01-13T08:57:31.783Z,100925.41
2019-01-13T08:58:32.261Z,100924.70
2019-01-13T08:59:32.864Z,100923.53
2019-01-13T09:00:33.340Z,100922.58
2019-01-13T09:01:33.774Z,100921.63
2019-01-13T09:02:34.315Z,100921.27
2019-01-13T09:03:34.797Z,100919.65
2019-01-13T09:04:35.222Z,100919.73
2019-01-13T09:05:35.345Z,100918.45
2019-01-13T09:06:36.129Z,100916.48
2019-01-13T09:07:36.755Z,100914.81
2019-01-13T09:08:37.309Z,100913.61
2019-01-13T09:09:37.795Z,100913.08
2019-01-13T09:10:38.325Z,100911.87
2019-01-13T09:11:38.786Z,100910.70
2019-01-13T09:12:39.384Z,100910.16
2019-01-13T09:13:39.990Z,100909.49
2019-01-13T09:14:40.481Z,100909.25
2019-01-13T09:15:40.923Z,100908.80
2019-01-13T09:16:41.471Z,100908.94
2019-01-13T09:17:42.041Z,100908.66
2019-01-13T09:18:42.474Z,100908.66
2019-01-13T09:19:43.080Z,100908.37
2019-01-13T09:20:43.621Z,100907.80
2019-01-13T09:21:44.810Z,100907.04
2019-01-13T09:22:44.253Z,100906.17
2019-01-13T09:23:44.877Z,100905.92
2019-01-13T09:24:45.706Z,100905.50
2019-01-13T09:25:46.285Z,100903.88
2019-01-13T09:26:50.906Z,100903.03
2019-01-13T09:27:46.496Z,100901.75
2019-01-13T09:28:48.016Z,100901.13
2019-01-13T09:29:47.594Z,100899.62
2019-01-13T09:30:48.071Z,100898.66
2019-01-13T09:30:56.428Z,100888.92
2019-01-13T09:31:57.440Z,100888.33
2019-01-13T09:32:57.950Z,100888.33
2019-01-13T09:33:58.560Z,100888.28
2019-01-13T09:34:58.945Z,100888.84
2019-01-13T09:35:59.523Z,100888.59
2019-01-13T09:36:59.977Z,100887.23
2019-01-13T09:38:00.400Z,100885.39
2019-01-13T09:39:00.949Z,100883.72
2019-01-13T09:40:00.298Z,100883.18
2019-01-13T09:41:02.094Z,100882.01
2019-01-13T09:42:02.546Z,100880.89
2019-01-13T09:43:02.981Z,100879.42
2019-01-13T09:44:03.448Z,100878.81
2019-01-13T09:45:03.887Z,100877.36
2019-01-13T09:46:04.505Z,100876.52
2019-01-13T09:47:05.147Z,100875.14
2019-01-13T09:48:05.683Z,100874.02
2019-01-13T09:49:06.187Z,100873.44
2019-01-13T09:50:06.705Z,100872.31
2019-01-13T09:51:07.204Z,100871.52
2019-01-13T09:52:07.706Z,100871.75
2019-01-13T09:53:08.239Z,100870.94
2019-01-13T09:54:08.659Z,100869.56
2019-01-13T09:55:09.068Z,100869.45
2019-01-13T09:56:09.572Z,100868.58
2019-01-13T09:57:10.575Z,100867.70
2019-01-13T09:58:11.119Z,100867.01
2019-01-13T09:59:11.532Z,100865.97
2019-01-13T10:00:12.086Z,100865.16
2019-01-13T10:01:12.613Z,100863.95
2019-01-13T10:02:13.123Z,100862.91
2019-01-13T10:03:13.576Z,100862.55
2019-01-13T10:04:14.057Z,100861.70
2019-01-13T10:05:14.719Z,100860.50
2019-01-13T10:06:17.020Z,100858.98
2019-01-13T10:07:14.747Z,100858.03
2019-01-13T10:08:16.309Z,100856.66
2019-01-13T10:09:16.771Z,100855.98
2019-01-13T10:10:17.284Z,100854.95
2019-01-13T10:11:17.721Z,100853.60
2019-01-13T10:12:18.169Z,100852.06
2019-01-13T10:13:18.572Z,100850.05
2019-01-13T10:14:19.207Z,100848.50
2019-01-13T10:15:19.743Z,100847.63
2019-01-13T10:15:27.823Z,100819.94
2019-01-13T10:16:29.268Z,100819.02
2019-01-13T10:17:29.641Z,100818.93
2019-01-13T10:18:30.416Z,100818.73
2019-01-13T10:19:31.274Z,100818.14
2019-01-13T10:20:31.776Z,100817.44
2019-01-13T10:21:32.239Z,100816.06
2019-01-13T10:22:32.735Z,100814.97
2019-01-13T10:23:33.190Z,100813.77
2019-01-13T10:24:33.935Z,100813.39
2019-01-13T10:25:34.428Z,100812.19
2019-01-13T10:26:34.801Z,100811.34
2019-01-13T10:27:35.280Z,100810.25
2019-01-13T10:28:35.778Z,100809.30
2019-01-13T10:29:36.557Z,100807.42
2019-01-13T10:30:37.033Z,100806.24
2019-01-13T10:31:37.504Z,100804.45
2019-01-13T10:32:38.066Z,100803.52
2019-01-13T10:33:38.699Z,100802.66
2019-01-13T10:34:39.248Z,100801.64
2019-01-13T10:35:39.671Z,100799.42
2019-01-13T10:36:40.257Z,100798.55
2019-01-13T10:37:40.825Z,100797.59
2019-01-13T10:38:41.464Z,100796.47
2019-01-13T10:39:42.047Z,100795.88
2019-01-13T10:40:42.454Z,100795.27
2019-01-13T10:41:42.926Z,100793.55
2019-01-13T10:42:43.365Z,100793.19
2019-01-13T10:43:43.772Z,100792.48
2019-01-13T10:44:44.425Z,100791.10
2019-01-13T10:45:45.036Z,100790.56
2019-01-13T10:46:45.708Z,100789.72
2019-01-13T10:47:45.710Z,100788.85
2019-01-13T10:48:46.301Z,100788.77
2019-01-13T10:49:46.805Z,100787.64
2019-01-13T10:50:47.293Z,100786.30
2019-01-13T10:51:47.841Z,100784.88
2019-01-13T10:52:48.379Z,100784.16
2019-01-13T10:53:48.841Z,100783.63
2019-01-13T10:54:49.327Z,100783.38
2019-01-13T10:55:49.945Z,100783.55
2019-01-13T10:56:50.422Z,100783.34
2019-01-13T10:57:51.064Z,100782.58
2019-01-13T10:58:51.470Z,100782.16
2019-01-13T10:59:07.114Z,100773.84
2019-01-13T11:00:08.579Z,100773.59
2019-01-13T11:01:09.113Z,100774.00
2019-01-13T11:02:09.679Z,100774.09
2019-01-13T11:03:10.221Z,100773.92
2019-01-13T11:04:10.421Z,100773.41
2019-01-13T11:05:10.912Z,100772.49
2019-01-13T11:06:11.372Z,100771.82
2019-01-13T11:07:11.791Z,100770.86
2019-01-13T11:08:12.172Z,100769.01
2019-01-13T11:09:12.754Z,100767.24
2019-01-13T11:10:13.320Z,100766.16
2019-01-13T11:11:13.991Z,100764.55
2019-01-13T11:12:14.543Z,100763.34
2019-01-13T11:13:14.954Z,100762.00
2019-01-13T11:14:15.429Z,100760.62
2019-01-13T11:15:21.595Z,100759.11
2019-01-13T11:16:15.421Z,100758.15
2019-01-13T11:17:16.966Z,100756.52
2019-01-13T11:18:16.991Z,100755.30